sensor_id;sensor_type;location;lat;lon;timestamp;pressure;altitude;pressure_sealevel;temperature;humidity
39897;BME280;25567;48.276;14.242;2022-12-19T00:00:46;99823.91;;;-4.34;100.00
39897;BME280;25567;48.276;14.242;2022-12-19T00:03:16;99840.22;;;-4.32;100.00
39897;BME280;25567;48.276;14.242;2022-12-19T00:05:43;99829.84;;;-4.32;100.00
39897;BME280;25567;48.276;14.242;2022-12-19T00:08:14;99827.16;;;-4.30;100.00
39897;BME280;25567;48.276;14.242;2022-12-19T00:10:44;99829.75;;;-4.30;100.00
39897;BME280;25567;48.276;14.242;2022-12-19T00:13:19;99825.31;;;-4.28;100.00
39897;BME280;25567;48.276;14.242;2022-12-19T00:15:45;99819.00;;;-4.24;100.00
39897;BME280;25567;48.276;14.242;2022-12-19T00:18:12;99815.44;;;-4.23;100.00
39897;BME280;25567;48.276;14.242;2022-12-19T00:20:39;99817.97;;;-4.22;100.00
39897;BME280;25567;48.276;14.242;2022-12-19T00:23:05;99802.50;;;-4.23;100.00
39897;BME280;25567;48.276;14.242;2022-12-19T00:25:35;99801.19;;;-4.16;100.00
39897;BME280;25567;48.276;14.242;2022-12-19T00:28:05;99804.91;;;-4.20;100.00
39897;BME280;25567;48.276;14.242;2022-12-19T00:30:32;99803.88;;;-4.17;100.00
39897;BME280;25567;48.276;14.242;2022-12-19T00:32:59;99796.09;;;-4.17;100.00
39897;BME280;25567;48.276;14.242;2022-12-19T00:35:25;99798.59;;;-4.16;100.00
39897;BME280;25567;48.276;14.242;2022-12-19T00:37:52;99796.00;;;-4.16;100.00
39897;BME280;25567;48.276;14.242;2022-12-19T00:40:19;99799.72;;;-4.20;100.00
39897;BME280;25567;48.276;14.242;2022-12-19T00:42:45;99799.91;;;-4.23;100.00
39897;BME280;25567;48.276;14.242;2022-12-19T00:45:19;99795.47;;;-4.21;100.00
39897;BME280;25567;48.276;14.242;2022-12-19T00:47:45;99797.94;;;-4.20;100.00
39897;BME280;25567;48.276;14.242;2022-12-19T00:50:12;99801.06;;;-4.14;100.00
39897;BME280;25567;48.276;14.242;2022-12-19T00:52:39;99802.84;;;-4.15;100.00
39897;BME280;25567;48.276;14.242;2022-12-19T00:55:05;99796.69;;;-4.14;100.00
39897;BME280;25567;48.276;14.242;2022-12-19T00:57:44;99791.53;;;-4.14;100.00
39897;BME280;25567;48.276;14.242;2022-12-19T01:00:11;99787.28;;;-4.15;100.00
39897;BME280;25567;48.276;14.242;2022-12-19T01:02:37;99783.75;;;-4.14;100.00
39897;BME280;25567;48.276;14.242;2022-12-19T01:05:05;99792.06;;;-4.09;100.00
39897;BME280;25567;48.276;14.242;2022-12-19T01:07:31;99792.91;;;-4.08;100.00
39897;BME280;25567;48.276;14.242;2022-12-19T01:09:58;99790.41;;;-4.10;100.00
39897;BME280;25567;48.276;14.242;2022-12-19T01:12:24;99780.97;;;-4.11;100.00
39897;BME280;25567;48.276;14.242;2022-12-19T01:15:07;99776.59;;;-4.10;100.00
39897;BME280;25567;48.276;14.242;2022-12-19T01:17:33;99771.03;;;-4.04;100.00
39897;BME280;25567;48.276;14.242;2022-12-19T01:20:10;99761.47;;;-4.04;100.00
39897;BME280;25567;48.276;14.242;2022-12-19T01:22:37;99757.16;;;-4.03;100.00
39897;BME280;25567;48.276;14.242;2022-12-19T01:25:05;99758.69;;;-4.00;100.00
39897;BME280;25567;48.276;14.242;2022-12-19T01:27:32;99753.69;;;-4.04;100.00
39897;BME280;25567;48.276;14.242;2022-12-19T01:29:58;99751.22;;;-4.05;100.00
39897;BME280;25567;48.276;14.242;2022-12-19T01:32:25;99749.44;;;-4.05;100.00
39897;BME280;25567;48.276;14.242;2022-12-19T01:34:52;99750.47;;;-4.07;100.00
39897;BME280;25567;48.276;14.242;2022-12-19T01:37:19;99750.47;;;-4.07;100.00
39897;BME280;25567;48.276;14.242;2022-12-19T01:39:45;99745.94;;;-4.04;100.00
39897;BME280;25567;48.276;14.242;2022-12-19T01:42:15;99739.81;;;-4.03;100.00
39897;BME280;25567;48.276;14.242;2022-12-19T01:45:24;99731.31;;;-4.05;100.00
39897;BME280;25567;48.276;14.242;2022-12-19T01:48:16;99737.63;;;-4.09;100.00
39897;BME280;25567;48.276;14.242;2022-12-19T01:53:35;99727.50;;;-3.99;100.00
39897;BME280;25567;48.276;14.242;2022-12-19T01:56:17;99712.34;;;-4.05;100.00
39897;BME280;25567;48.276;14.242;2022-12-19T01:58:44;99710.50;;;-4.03;100.00
39897;BME280;25567;48.276;14.242;2022-12-19T02:01:14;99712.97;;;-4.02;100.00
39897;BME280;25567;48.276;14.242;2022-12-19T02:03:41;99724.28;;;-4.03;100.00
39897;BME280;25567;48.276;14.242;2022-12-19T02:06:08;99721.69;;;-4.03;100.00
39897;BME280;25567;48.276;14.242;2022-12-19T02:08:35;99720.63;;;-4.00;100.00
39897;BME280;25567;48.276;14.242;2022-12-19T02:11:02;99717.22;;;-4.00;100.00
39897;BME280;25567;48.276;14.242;2022-12-19T02:13:29;99708.72;;;-4.03;100.00
39897;BME280;25567;48.276;14.242;2022-12-19T02:32:03;99707.78;;;-4.02;100.00
39897;BME280;25567;48.276;14.242;2022-12-19T02:34:38;99691.81;;;-3.95;100.00
39897;BME280;25567;48.276;14.242;2022-12-19T02:37:16;99684.34;;;-4.00;100.00
39897;BME280;25567;48.276;14.242;2022-12-19T02:39:48;99681.66;;;-3.98;100.00
39897;BME280;25567;48.276;14.242;2022-12-19T02:42:24;99672.72;;;-3.94;100.00
39897;BME280;25567;48.276;14.242;2022-12-19T02:44:59;99681.34;;;-3.94;100.00
39897;BME280;25567;48.276;14.242;2022-12-19T02:47:29;99694.50;;;-3.97;100.00
39897;BME280;25567;48.276;14.242;2022-12-19T02:49:56;99696.16;;;-3.96;100.00
39897;BME280;25567;48.276;14.242;2022-12-19T02:54:52;99697.31;;;-3.87;100.00
39897;BME280;25567;48.276;14.242;2022-12-19T02:57:30;99702.38;;;-3.86;100.00
39897;BME280;25567;48.276;14.242;2022-12-19T03:08:26;99686.38;;;-3.79;99.56
39897;BME280;25567;48.276;14.242;2022-12-19T03:11:10;99688.16;;;-3.80;99.84
39897;BME280;25567;48.276;14.242;2022-12-19T03:13:43;99678.84;;;-3.82;100.00
39897;BME280;25567;48.276;14.242;2022-12-19T03:16:13;99680.50;;;-3.81;99.87
39897;BME280;25567;48.276;14.242;2022-12-19T03:18:40;99678.72;;;-3.81;100.00
39897;BME280;25567;48.276;14.242;2022-12-19T03:21:31;99680.50;;;-3.81;100.00
39897;BME280;25567;48.276;14.242;2022-12-19T03:24:00;99676.88;;;-3.79;100.00
39897;BME280;25567;48.276;14.242;2022-12-19T03:26:30;99665.56;;;-3.78;100.00
39897;BME280;25567;48.276;14.242;2022-12-19T03:29:08;99674.28;;;-3.79;100.00
39897;BME280;25567;48.276;14.242;2022-12-19T03:31:40;99672.72;;;-3.81;100.00
39897;BME280;25567;48.276;14.242;2022-12-19T03:34:20;99681.44;;;-3.82;100.00
39897;BME280;25567;48.276;14.242;2022-12-19T03:36:51;99680.16;;;-3.77;100.00
39897;BME280;25567;48.276;14.242;2022-12-19T03:39:20;99666.28;;;-3.76;100.00
39897;BME280;25567;48.276;14.242;2022-12-19T03:41:50;99665.44;;;-3.76;100.00
39897;BME280;25567;48.276;14.242;2022-12-19T03:44:35;99667.19;;;-3.77;100.00
39897;BME280;25567;48.276;14.242;2022-12-19T03:47:08;99662.97;;;-3.78;100.00
39897;BME280;25567;48.276;14.242;2022-12-19T03:49:37;99672.50;;;-3.78;100.00
39897;BME280;25567;48.276;14.242;2022-12-19T03:54:52;99682.44;;;-3.72;100.00
39897;BME280;25567;48.276;14.242;2022-12-19T03:57:28;99684.53;;;-3.64;100.00
39897;BME280;25567;48.276;14.242;2022-12-19T03:59:59;99668.00;;;-3.63;100.00
39897;BME280;25567;48.276;14.242;2022-12-19T04:02:27;99658.59;;;-3.64;100.00
39897;BME280;25567;48.276;14.242;2022-12-19T04:05:02;99662.63;;;-3.60;100.00
39897;BME280;25567;48.276;14.242;2022-12-19T04:07:30;99655.03;;;-3.63;100.00
39897;BME280;25567;48.276;14.242;2022-12-19T04:09:57;99645.81;;;-3.67;100.00
39897;BME280;25567;48.276;14.242;2022-12-19T04:12:33;99650.28;;;-3.70;100.00
39897;BME280;25567;48.276;14.242;2022-12-19T04:15:00;99668.22;;;-3.66;100.00
39897;BME280;25567;48.276;14.242;2022-12-19T04:17:33;99673.53;;;-3.68;100.00
39897;BME280;25567;48.276;14.242;2022-12-19T04:20:08;99678.81;;;-3.70;100.00
39897;BME280;25567;48.276;14.242;2022-12-19T04:25:15;99680.38;;;-3.67;100.00
39897;BME280;25567;48.276;14.242;2022-12-19T04:27:57;99694.16;;;-3.66;100.00
39897;BME280;25567;48.276;14.242;2022-12-19T04:30:26;99689.81;;;-3.66;100.00
39897;BME280;25567;48.276;14.242;2022-12-19T04:32:52;99697.38;;;-3.63;100.00
39897;BME280;25567;48.276;14.242;2022-12-19T04:35:19;99691.34;;;-3.63;100.00
39897;BME280;25567;48.276;14.242;2022-12-19T04:37:46;99688.75;;;-3.63;100.00
39897;BME280;25567;48.276;14.242;2022-12-19T04:40:13;99698.53;;;-3.67;100.00
39897;BME280;25567;48.276;14.242;2022-12-19T04:42:39;99699.34;;;-3.66;100.00
39897;BME280;25567;48.276;14.242;2022-12-19T04:45:06;99698.53;;;-3.67;100.00
39897;BME280;25567;48.276;14.242;2022-12-19T04:47:33;99689.81;;;-3.66;100.00
39897;BME280;25567;48.276;14.242;2022-12-19T04:50:00;99674.44;;;-3.69;100.00
39897;BME280;25567;48.276;14.242;2022-12-19T04:52:27;99666.66;;;-3.69;100.00
39897;BME280;25567;48.276;14.242;2022-12-19T04:54:53;99660.03;;;-3.73;100.00
39897;BME280;25567;48.276;14.242;2022-12-19T04:57:20;99655.78;;;-3.74;100.00
39897;BME280;25567;48.276;14.242;2022-12-19T04:59:47;99664.53;;;-3.75;100.00
39897;BME280;25567;48.276;14.242;2022-12-19T05:02:13;99672.31;;;-3.75;100.00
39897;BME280;25567;48.276;14.242;2022-12-19T05:04:40;99679.00;;;-3.73;100.00
39897;BME280;25567;48.276;14.242;2022-12-19T05:07:07;99705.91;;;-3.74;100.00
39897;BME280;25567;48.276;14.242;2022-12-19T05:09:34;99716.56;;;-3.53;100.00
39897;BME280;25567;48.276;14.242;2022-12-19T05:12:00;99691.84;;;-3.58;100.00
39897;BME280;25567;48.276;14.242;2022-12-19T05:14:27;99703.75;;;-3.43;100.00
39897;BME280;25567;48.276;14.242;2022-12-19T05:16:54;99676.78;;;-3.53;100.00
39897;BME280;25567;48.276;14.242;2022-12-19T05:19:27;99697.16;;;-3.60;100.00
39897;BME280;25567;48.276;14.242;2022-12-19T05:21:54;99689.47;;;-3.61;100.00
39897;BME280;25567;48.276;14.242;2022-12-19T05:24:20;99687.00;;;-3.63;100.00
39897;BME280;25567;48.276;14.242;2022-12-19T05:26:48;99707.75;;;-3.63;100.00
39897;BME280;25567;48.276;14.242;2022-12-19T05:29:15;99703.06;;;-3.58;100.00
39897;BME280;25567;48.276;14.242;2022-12-19T05:31:42;99683.47;;;-3.62;100.00
39897;BME280;25567;48.276;14.242;2022-12-19T05:34:09;99705.97;;;-3.62;100.00
39897;BME280;25567;48.276;14.242;2022-12-19T05:36:36;99704.22;;;-3.62;100.00
39897;BME280;25567;48.276;14.242;2022-12-19T05:39:03;99703.19;;;-3.59;100.00
39897;BME280;25567;48.276;14.242;2022-12-19T05:41:29;99700.59;;;-3.59;100.00
39897;BME280;25567;48.276;14.242;2022-12-19T05:43:56;99665.72;;;-3.55;100.00
39897;BME280;25567;48.276;14.242;2022-12-19T05:46:24;99663.00;;;-3.54;100.00
39897;BME280;25567;48.276;14.242;2022-12-19T05:48:51;99667.25;;;-3.53;100.00
39897;BME280;25567;48.276;14.242;2022-12-19T05:51:18;99657.09;;;-3.56;100.00
39897;BME280;25567;48.276;14.242;2022-12-19T05:53:46;99633.84;;;-3.57;100.00
39897;BME280;25567;48.276;14.242;2022-12-19T05:56:15;99634.91;;;-3.60;100.00
39897;BME280;25567;48.276;14.242;2022-12-19T05:58:45;99658.34;;;-3.61;100.00
39897;BME280;25567;48.276;14.242;2022-12-19T06:01:16;99730.25;;;-3.63;100.00
39897;BME280;25567;48.276;14.242;2022-12-19T06:03:44;99762.38;;;-3.40;100.00
39897;BME280;25567;48.276;14.242;2022-12-19T06:06:15;99749.19;;;-3.37;100.00
39897;BME280;25567;48.276;14.242;2022-12-19T06:08:42;99743.59;;;-3.44;100.00
39897;BME280;25567;48.276;14.242;2022-12-19T06:11:10;99765.63;;;-3.49;100.00
39897;BME280;25567;48.276;14.242;2022-12-19T06:13:39;99772.00;;;-3.29;100.00
39897;BME280;25567;48.276;14.242;2022-12-19T06:16:09;99795.69;;;-3.34;100.00
39897;BME280;25567;48.276;14.242;2022-12-19T06:18:38;99791.84;;;-3.28;100.00
39897;BME280;25567;48.276;14.242;2022-12-19T06:21:13;99786.19;;;-3.09;100.00
39897;BME280;25567;48.276;14.242;2022-12-19T06:23:40;99796.81;;;-2.88;100.00
39897;BME280;25567;48.276;14.242;2022-12-19T06:26:10;99801.97;;;-2.99;100.00
39897;BME280;25567;48.276;14.242;2022-12-19T06:28:44;99793.94;;;-2.96;99.84
39897;BME280;25567;48.276;14.242;2022-12-19T06:31:11;99776.31;;;-3.04;99.29
39897;BME280;25567;48.276;14.242;2022-12-19T06:33:38;99802.06;;;-3.01;98.72
39897;BME280;25567;48.276;14.242;2022-12-19T06:36:12;99790.97;;;-3.16;98.30
39897;BME280;25567;48.276;14.242;2022-12-19T06:38:39;99785.41;;;-3.36;99.72
39897;BME280;25567;48.276;14.242;2022-12-19T06:41:08;99800.91;;;-3.47;100.00
39897;BME280;25567;48.276;14.242;2022-12-19T06:43:50;99769.88;;;-3.48;100.00
39897;BME280;25567;48.276;14.242;2022-12-19T06:46:19;99809.59;;;-3.48;100.00
39897;BME280;25567;48.276;14.242;2022-12-19T06:48:46;99797.03;;;-3.54;100.00
39897;BME280;25567;48.276;14.242;2022-12-19T06:51:13;99813.47;;;-3.41;100.00
39897;BME280;25567;48.276;14.242;2022-12-19T06:53:40;99803.91;;;-3.53;100.00
39897;BME280;25567;48.276;14.242;2022-12-19T06:56:06;99821.44;;;-3.31;98.70
39897;BME280;25567;48.276;14.242;2022-12-19T06:58:33;99814.16;;;-3.52;97.56
39897;BME280;25567;48.276;14.242;2022-12-19T07:01:00;99824.97;;;-3.58;97.84
39897;BME280;25567;48.276;14.242;2022-12-19T07:03:35;99824.56;;;-3.64;97.81
39897;BME280;25567;48.276;14.242;2022-12-19T07:06:04;99839.28;;;-3.78;98.57
39897;BME280;25567;48.276;14.242;2022-12-19T07:08:31;99830.97;;;-3.83;99.01
39897;BME280;25567;48.276;14.242;2022-12-19T07:10:58;99840.72;;;-3.87;99.45
39897;BME280;25567;48.276;14.242;2022-12-19T07:13:25;99853.06;;;-3.77;100.00
39897;BME280;25567;48.276;14.242;2022-12-19T07:15:53;99852.03;;;-3.75;99.32
39897;BME280;25567;48.276;14.242;2022-12-19T07:18:24;99853.38;;;-3.82;99.79
39897;BME280;25567;48.276;14.242;2022-12-19T07:20:51;99858.66;;;-3.83;100.00
39897;BME280;25567;48.276;14.242;2022-12-19T07:23:19;99845.59;;;-3.82;100.00
39897;BME280;25567;48.276;14.242;2022-12-19T07:25:47;99872.38;;;-3.69;100.00
39897;BME280;25567;48.276;14.242;2022-12-19T07:28:15;99855.25;;;-3.71;100.00
39897;BME280;25567;48.276;14.242;2022-12-19T07:30:42;99866.91;;;-3.51;100.00
39897;BME280;25567;48.276;14.242;2022-12-19T07:33:08;99856.22;;;-3.59;100.00
39897;BME280;25567;48.276;14.242;2022-12-19T07:35:38;99865.97;;;-3.50;99.51
39897;BME280;25567;48.276;14.242;2022-12-19T07:38:06;99864.19;;;-3.37;99.22
39897;BME280;25567;48.276;14.242;2022-12-19T07:40:34;99836.41;;;-3.47;98.58
39897;BME280;25567;48.276;14.242;2022-12-19T07:43:02;99862.31;;;-3.35;98.85
39897;BME280;25567;48.276;14.242;2022-12-19T07:45:30;99859.59;;;-3.20;97.64
39897;BME280;25567;48.276;14.242;2022-12-19T07:48:01;99865.66;;;-3.32;96.86
39897;BME280;25567;48.276;14.242;2022-12-19T07:50:28;99881.22;;;-3.20;95.62
39897;BME280;25567;48.276;14.242;2022-12-19T07:52:56;99874.47;;;-3.22;94.96
39897;BME280;25567;48.276;14.242;2022-12-19T07:55:23;99884.31;;;-3.14;94.87
39897;BME280;25567;48.276;14.242;2022-12-19T07:57:50;99881.53;;;-3.24;95.02
39897;BME280;25567;48.276;14.242;2022-12-19T08:00:17;99892.94;;;-3.27;95.57
39897;BME280;25567;48.276;14.242;2022-12-19T08:02:44;99892.31;;;-3.30;95.52
39897;BME280;25567;48.276;14.242;2022-12-19T08:05:14;99878.63;;;-3.32;96.53
39897;BME280;25567;48.276;14.242;2022-12-19T08:07:41;99882.16;;;-3.21;97.45
39897;BME280;25567;48.276;14.242;2022-12-19T08:10:08;99896.88;;;-3.21;96.19
39897;BME280;25567;48.276;14.242;2022-12-19T08:12:37;99893.75;;;-3.26;95.63
39897;BME280;25567;48.276;14.242;2022-12-19T08:15:04;99891.91;;;-3.24;97.38
39897;BME280;25567;48.276;14.242;2022-12-19T08:17:33;99864.09;;;-3.22;98.79
39897;BME280;25567;48.276;14.242;2022-12-19T08:20:00;99874.66;;;-3.12;98.30
39897;BME280;25567;48.276;14.242;2022-12-19T08:22:28;99874.88;;;-3.15;97.61
39897;BME280;25567;48.276;14.242;2022-12-19T08:24:55;99859.81;;;-3.10;96.87
39897;BME280;25567;48.276;14.242;2022-12-19T08:27:23;99832.78;;;-3.08;98.24
39897;BME280;25567;48.276;14.242;2022-12-19T08:29:53;99824.06;;;-3.07;99.33
39897;BME280;25567;48.276;14.242;2022-12-19T08:32:20;99804.88;;;-3.04;100.00
39897;BME280;25567;48.276;14.242;2022-12-19T08:34:48;99811.59;;;-3.02;100.00
39897;BME280;25567;48.276;14.242;2022-12-19T08:37:16;99820.84;;;-2.97;100.00
39897;BME280;25567;48.276;14.242;2022-12-19T08:39:43;99810.69;;;-2.76;100.00
39897;BME280;25567;48.276;14.242;2022-12-19T08:42:09;99798.72;;;-2.66;99.31
39897;BME280;25567;48.276;14.242;2022-12-19T08:44:36;99775.00;;;-2.61;98.93
39897;BME280;25567;48.276;14.242;2022-12-19T08:47:03;99784.88;;;-2.42;98.47
39897;BME280;25567;48.276;14.242;2022-12-19T08:49:30;99818.00;;;-2.33;97.10
39897;BME280;25567;48.276;14.242;2022-12-19T08:51:56;99830.44;;;-2.25;96.06
39897;BME280;25567;48.276;14.242;2022-12-19T08:54:23;99838.25;;;-2.25;95.40
39897;BME280;25567;48.276;14.242;2022-12-19T08:56:50;99848.53;;;-2.24;95.16
39897;BME280;25567;48.276;14.242;2022-12-19T08:59:16;99847.09;;;-2.28;94.15
39897;BME280;25567;48.276;14.242;2022-12-19T09:01:57;99844.31;;;-2.38;94.39
39897;BME280;25567;48.276;14.242;2022-12-19T09:04:24;99844.78;;;-2.44;94.86
39897;BME280;25567;48.276;14.242;2022-12-19T09:07:11;99851.72;;;-2.44;94.70
39897;BME280;25567;48.276;14.242;2022-12-19T09:09:42;99843.13;;;-2.45;95.08
39897;BME280;25567;48.276;14.242;2022-12-19T09:12:08;99862.22;;;-2.46;95.16
39897;BME280;25567;48.276;14.242;2022-12-19T09:14:35;99862.78;;;-2.54;95.00
39897;BME280;25567;48.276;14.242;2022-12-19T09:17:02;99853.88;;;-2.62;96.67
39897;BME280;25567;48.276;14.242;2022-12-19T09:19:30;99851.50;;;-2.65;98.44
39897;BME280;25567;48.276;14.242;2022-12-19T09:21:57;99846.28;;;-2.65;98.98
39897;BME280;25567;48.276;14.242;2022-12-19T09:24:23;99853.16;;;-2.40;98.62
39897;BME280;25567;48.276;14.242;2022-12-19T09:26:50;99847.06;;;-2.52;98.87
39897;BME280;25567;48.276;14.242;2022-12-19T09:29:17;99853.31;;;-2.55;99.55
39897;BME280;25567;48.276;14.242;2022-12-19T09:31:48;99832.66;;;-2.56;100.00
39897;BME280;25567;48.276;14.242;2022-12-19T09:34:24;99835.44;;;-2.46;99.25
39897;BME280;25567;48.276;14.242;2022-12-19T09:37:07;99826.78;;;-2.47;99.23
39897;BME280;25567;48.276;14.242;2022-12-19T09:39:34;99819.47;;;-2.53;99.56
39897;BME280;25567;48.276;14.242;2022-12-19T09:42:21;99821.22;;;-2.54;99.83
39897;BME280;25567;48.276;14.242;2022-12-19T09:45:07;99812.38;;;-2.51;99.97
39897;BME280;25567;48.276;14.242;2022-12-19T09:47:42;99817.63;;;-2.40;99.58
39897;BME280;25567;48.276;14.242;2022-12-19T09:50:24;99819.38;;;-2.40;98.92
39897;BME280;25567;48.276;14.242;2022-12-19T09:52:57;99821.16;;;-2.41;99.07
39897;BME280;25567;48.276;14.242;2022-12-19T09:55:41;99815.72;;;-2.38;99.70
39897;BME280;25567;48.276;14.242;2022-12-19T09:58:14;99823.09;;;-2.31;98.91
39897;BME280;25567;48.276;14.242;2022-12-19T10:00:48;99817.06;;;-2.32;99.40
39897;BME280;25567;48.276;14.242;2022-12-19T10:03:31;99814.38;;;-2.19;98.57
39897;BME280;25567;48.276;14.242;2022-12-19T10:09:13;99797.59;;;-2.15;99.57
39897;BME280;25567;48.276;14.242;2022-12-19T10:15:02;99795.53;;;-1.98;98.33
39897;BME280;25567;48.276;14.242;2022-12-19T10:22:53;99799.66;;;-2.07;99.86
39897;BME280;25567;48.276;14.242;2022-12-19T10:25:47;99807.25;;;-2.04;99.57
39897;BME280;25567;48.276;14.242;2022-12-19T10:36:42;99791.66;;;-1.93;99.31
39897;BME280;25567;48.276;14.242;2022-12-19T10:39:32;99794.00;;;-1.90;99.53
39897;BME280;25567;48.276;14.242;2022-12-19T10:42:10;99803.59;;;-1.90;99.60
39897;BME280;25567;48.276;14.242;2022-12-19T10:44:42;99782.22;;;-1.82;99.36
39897;BME280;25567;48.276;14.242;2022-12-19T10:47:14;99800.09;;;-1.66;98.53
39897;BME280;25567;48.276;14.242;2022-12-19T10:49:41;99785.91;;;-1.51;97.50
39897;BME280;25567;48.276;14.242;2022-12-19T10:52:11;99778.91;;;-1.16;94.18
39897;BME280;25567;48.276;14.242;2022-12-19T10:54:38;99779.94;;;-1.08;91.81
39897;BME280;25567;48.276;14.242;2022-12-19T10:57:25;99758.66;;;-1.02;90.60
39897;BME280;25567;48.276;14.242;2022-12-19T11:00:03;99762.34;;;-1.27;92.70
39897;BME280;25567;48.276;14.242;2022-12-19T11:08:03;99757.66;;;-0.89;89.37
39897;BME280;25567;48.276;14.242;2022-12-19T11:10:39;99760.38;;;-0.91;90.30
39897;BME280;25567;48.276;14.242;2022-12-19T11:16:35;99753.97;;;-0.75;89.90
39897;BME280;25567;48.276;14.242;2022-12-19T11:19:33;99757.19;;;-0.83;90.11
39897;BME280;25567;48.276;14.242;2022-12-19T11:22:25;99763.66;;;-0.77;90.04
39897;BME280;25567;48.276;14.242;2022-12-19T11:25:16;99767.81;;;-0.75;89.54
39897;BME280;25567;48.276;14.242;2022-12-19T11:28:11;99760.72;;;-0.73;89.22
39897;BME280;25567;48.276;14.242;2022-12-19T11:31:06;99740.34;;;-0.79;89.25
39897;BME280;25567;48.276;14.242;2022-12-19T11:34:03;99740.38;;;-0.90;91.55
39897;BME280;25567;48.276;14.242;2022-12-19T11:39:04;99734.88;;;-0.76;91.20
39897;BME280;25567;48.276;14.242;2022-12-19T11:41:41;99740.34;;;-0.79;90.23
39897;BME280;25567;48.276;14.242;2022-12-19T11:44:25;99736.28;;;-0.72;89.56
39897;BME280;25567;48.276;14.242;2022-12-19T11:49:41;99714.63;;;-0.72;88.60
39897;BME280;25567;48.276;14.242;2022-12-19T11:55:48;99711.28;;;-0.95;90.91
39897;BME280;25567;48.276;14.242;2022-12-19T11:58:16;99708.75;;;-0.86;90.90
39897;BME280;25567;48.276;14.242;2022-12-19T12:00:50;99709.78;;;-0.77;89.65
39897;BME280;25567;48.276;14.242;2022-12-19T12:06:11;99715.84;;;-0.88;89.42
39897;BME280;25567;48.276;14.242;2022-12-19T12:08:57;99707.38;;;-1.01;89.21
39897;BME280;25567;48.276;14.242;2022-12-19T12:11:50;99708.94;;;-1.10;90.08
39897;BME280;25567;48.276;14.242;2022-12-19T12:15:03;99709.16;;;-1.02;90.54
39897;BME280;25567;48.276;14.242;2022-12-19T12:21:27;99703.09;;;-0.91;90.05
39897;BME280;25567;48.276;14.242;2022-12-19T12:27:49;99697.50;;;-0.86;89.70
39897;BME280;25567;48.276;14.242;2022-12-19T12:37:36;99703.81;;;-0.89;90.82
39897;BME280;25567;48.276;14.242;2022-12-19T12:40:52;99686.44;;;-0.78;89.54
39897;BME280;25567;48.276;14.242;2022-12-19T12:46:26;99676.53;;;-0.85;90.81
39897;BME280;25567;48.276;14.242;2022-12-19T12:49:14;99673.03;;;-0.95;93.01
39897;BME280;25567;48.276;14.242;2022-12-19T12:51:47;99673.84;;;-0.94;92.59
39897;BME280;25567;48.276;14.242;2022-12-19T12:54:15;99668.63;;;-0.94;93.47
39897;BME280;25567;48.276;14.242;2022-12-19T12:56:44;99663.38;;;-0.83;92.50
39897;BME280;25567;48.276;14.242;2022-12-19T12:59:23;99650.22;;;-0.81;92.64
39897;BME280;25567;48.276;14.242;2022-12-19T13:01:53;99654.41;;;-0.90;93.46
39897;BME280;25567;48.276;14.242;2022-12-19T13:07:14;99637.19;;;-1.03;96.53
39897;BME280;25567;48.276;14.242;2022-12-19T13:09:53;99634.44;;;-1.01;96.24
39897;BME280;25567;48.276;14.242;2022-12-19T13:12:29;99623.47;;;-1.05;96.81
39897;BME280;25567;48.276;14.242;2022-12-19T13:15:31;99624.28;;;-1.04;96.93
39897;BME280;25567;48.276;14.242;2022-12-19T13:18:08;99616.59;;;-1.06;97.98
39897;BME280;25567;48.276;14.242;2022-12-19T13:20:41;99606.38;;;-0.97;97.69
39897;BME280;25567;48.276;14.242;2022-12-19T13:25:55;99602.97;;;-0.98;97.95
39897;BME280;25567;48.276;14.242;2022-12-19T13:34:09;99598.69;;;-0.99;98.51
39897;BME280;25567;48.276;14.242;2022-12-19T13:36:49;99595.38;;;-1.01;98.65
39897;BME280;25567;48.276;14.242;2022-12-19T13:39:41;99602.50;;;-1.03;99.15
39897;BME280;25567;48.276;14.242;2022-12-19T13:42:33;99601.56;;;-1.02;98.95
39897;BME280;25567;48.276;14.242;2022-12-19T13:45:34;99596.59;;;-1.05;100.00
39897;BME280;25567;48.276;14.242;2022-12-19T13:48:03;99594.13;;;-1.07;99.71
39897;BME280;25567;48.276;14.242;2022-12-19T13:50:38;99600.25;;;-1.08;100.00
39897;BME280;25567;48.276;14.242;2022-12-19T13:53:18;99600.53;;;-1.11;100.00
39897;BME280;25567;48.276;14.242;2022-12-19T13:55:47;99601.34;;;-1.10;100.00
39897;BME280;25567;48.276;14.242;2022-12-19T13:58:28;99596.00;;;-1.09;100.00
39897;BME280;25567;48.276;14.242;2022-12-19T14:01:01;99598.38;;;-1.06;100.00
39897;BME280;25567;48.276;14.242;2022-12-19T14:03:36;99600.13;;;-1.06;100.00
39897;BME280;25567;48.276;14.242;2022-12-19T14:06:09;99594.81;;;-1.05;100.00
39897;BME280;25567;48.276;14.242;2022-12-19T14:08:47;99592.91;;;-1.03;100.00
39897;BME280;25567;48.276;14.242;2022-12-19T14:11:40;99595.78;;;-1.06;100.00
39897;BME280;25567;48.276;14.242;2022-12-19T14:14:28;99605.59;;;-1.09;100.00
39897;BME280;25567;48.276;14.242;2022-12-19T14:19:43;99610.00;;;-1.10;100.00
39897;BME280;25567;48.276;14.242;2022-12-19T14:22:21;99611.75;;;-1.10;100.00
39897;BME280;25567;48.276;14.242;2022-12-19T14:27:52;99605.03;;;-1.13;100.00
39897;BME280;25567;48.276;14.242;2022-12-19T14:30:46;99603.81;;;-1.09;100.00
39897;BME280;25567;48.276;14.242;2022-12-19T14:33:19;99611.06;;;-1.12;100.00
39897;BME280;25567;48.276;14.242;2022-12-19T14:36:07;99610.22;;;-1.13;100.00
39897;BME280;25567;48.276;14.242;2022-12-19T14:38:47;99606.94;;;-1.15;100.00
39897;BME280;25567;48.276;14.242;2022-12-19T14:41:39;99600.53;;;-1.11;100.00
39897;BME280;25567;48.276;14.242;2022-12-19T14:44:49;99590.59;;;-1.17;100.00
39897;BME280;25567;48.276;14.242;2022-12-19T14:47:38;99592.66;;;-1.21;100.00
39897;BME280;25567;48.276;14.242;2022-12-19T14:50:31;99593.72;;;-1.23;100.00
39897;BME280;25567;48.276;14.242;2022-12-19T14:53:20;99593.13;;;-1.27;100.00
39897;BME280;25567;48.276;14.242;2022-12-19T14:56:09;99592.28;;;-1.27;100.00
39897;BME280;25567;48.276;14.242;2022-12-19T14:58:57;99584.75;;;-1.30;100.00
39897;BME280;25567;48.276;14.242;2022-12-19T15:01:28;99574.47;;;-1.32;100.00